Terminal Aerodrome Forecast
Issued by NWS

Home | Current Version | Previous Version | Text Only | Print | Product List | Glossary On
Versions: 1 2 3 4 5 6 7 8 9 10 11 12 13 14 15
000
FTUS44 KBMX 092300
TAFANB
TAF
KANB 092335Z 1000/1024 25004KT P6SM VCSH SCT035 BKN050
     FM100600 VRB04KT P6SM BKN150
     FM101500 30004KT P6SM SCT050=

USA.gov is the U.S. government's official web portal to all federal, state and local government web resources and services.